Main page
METAR-TAF:

METAR-TAF

Airports :

Mary International Airport

Mary, Turkmenistan

latitude: 37-36-24N, longitude: 061-54-05E, elevation: 222 m

Current weather observation

The report was made 43 minutes ago, at 20:00 UTC
Wind 4 kt from the West
Temperature 28°C
Humidity 28%
Pressure 1005 hPa
Visibility: 6000 m

METAR: UTAM 222000Z 28004KT 6000 NSC 28/08 Q1005 NOSIG

Time: 01:43 (20:43 UTC)

Forecast

The report was made 4 hours and 13 minutes ago, at 16:30 UTC
Forecast valid from 22 at 18 UTC to 23 at 18 UTC
Wind 16 kt from the North/Northwest
Visibility: 5000 m
Scattered clouds at a height of 5000 ft
Scattered clouds at a height of 10000 ft
Temporary
from 22 at 18 UTC to 23 at 03 UTC
Wind 14 kt from the West/Northwest
Temporary
from 23 at 03 UTC to 23 at 12 UTC
Wind 12 kt from the Northwest with gusts up to 22 kt
Visibility: 3000 m
Low drifting dust

TAF: UTAM 221630Z 2218/2318 34016KT 5000 SCT050 SCT100 530009 TEMPO 2218/2303 30014KT TEMPO 2303/2312 32012G22KT 3000 DRDU

Weather observations and forecasts of more than 4000 airports (METAR and TAF reports).

The available stations are represented by yellow and red dots on the map.

Hover mouse over dot to see the name of the station.

Then click to see weather observations and forecasts.

To change the map : click on the green buttons with a black cross to zoom in, on the green button with a dash to zoom out, or on the green arrows for adjacent maps.


METAR-TAF: